sensor_id;sensor_type;location;lat;lon;timestamp;temperature;humidity
4411;DHT22;2218;51.408;7.208;2023-05-07T00:01:43;21.30;47.10
4411;DHT22;2218;51.408;7.208;2023-05-07T00:04:10;21.30;47.10
4411;DHT22;2218;51.408;7.208;2023-05-07T00:06:37;21.30;47.60
4411;DHT22;2218;51.408;7.208;2023-05-07T00:09:04;21.30;47.10
4411;DHT22;2218;51.408;7.208;2023-05-07T00:11:32;21.30;47.10
4411;DHT22;2218;51.408;7.208;2023-05-07T00:14:00;21.30;47.10
4411;DHT22;2218;51.408;7.208;2023-05-07T00:16:27;21.30;47.10
4411;DHT22;2218;51.408;7.208;2023-05-07T00:18:54;21.30;47.10
4411;DHT22;2218;51.408;7.208;2023-05-07T00:21:21;21.30;47.20
4411;DHT22;2218;51.408;7.208;2023-05-07T00:23:48;21.30;47.10
4411;DHT22;2218;51.408;7.208;2023-05-07T00:26:15;21.30;47.10
4411;DHT22;2218;51.408;7.208;2023-05-07T00:28:45;21.30;47.10
4411;DHT22;2218;51.408;7.208;2023-05-07T00:31:12;21.30;47.10
4411;DHT22;2218;51.408;7.208;2023-05-07T00:33:39;21.30;47.20
4411;DHT22;2218;51.408;7.208;2023-05-07T00:36:07;21.30;47.20
4411;DHT22;2218;51.408;7.208;2023-05-07T00:38:34;21.30;47.20
4411;DHT22;2218;51.408;7.208;2023-05-07T00:41:01;21.30;47.20
4411;DHT22;2218;51.408;7.208;2023-05-07T00:43:28;21.30;47.20
4411;DHT22;2218;51.408;7.208;2023-05-07T00:45:57;21.30;47.20
4411;DHT22;2218;51.408;7.208;2023-05-07T00:48:25;21.30;47.20
4411;DHT22;2218;51.408;7.208;2023-05-07T00:50:52;21.30;47.30
4411;DHT22;2218;51.408;7.208;2023-05-07T00:53:20;21.30;47.20
4411;DHT22;2218;51.408;7.208;2023-05-07T00:55:48;21.30;47.20
4411;DHT22;2218;51.408;7.208;2023-05-07T00:58:15;21.30;47.20
4411;DHT22;2218;51.408;7.208;2023-05-07T01:00:43;21.30;47.20
4411;DHT22;2218;51.408;7.208;2023-05-07T01:03:11;21.30;47.20
4411;DHT22;2218;51.408;7.208;2023-05-07T01:05:39;21.30;47.20
4411;DHT22;2218;51.408;7.208;2023-05-07T01:08:07;21.30;47.30
4411;DHT22;2218;51.408;7.208;2023-05-07T01:10:34;21.30;47.20
4411;DHT22;2218;51.408;7.208;2023-05-07T01:13:01;21.30;47.20
4411;DHT22;2218;51.408;7.208;2023-05-07T01:15:29;21.30;47.30
4411;DHT22;2218;51.408;7.208;2023-05-07T01:17:56;21.30;47.30
4411;DHT22;2218;51.408;7.208;2023-05-07T01:20:31;21.30;47.30
4411;DHT22;2218;51.408;7.208;2023-05-07T01:23:01;21.30;47.30
4411;DHT22;2218;51.408;7.208;2023-05-07T01:25:30;21.30;47.30
4411;DHT22;2218;51.408;7.208;2023-05-07T01:27:59;21.30;47.30
4411;DHT22;2218;51.408;7.208;2023-05-07T01:30:29;21.30;47.30
4411;DHT22;2218;51.408;7.208;2023-05-07T01:33:02;21.20;47.30
4411;DHT22;2218;51.408;7.208;2023-05-07T01:35:36;21.30;47.40
4411;DHT22;2218;51.408;7.208;2023-05-07T01:38:08;21.20;47.30
4411;DHT22;2218;51.408;7.208;2023-05-07T01:40:35;21.20;47.30
4411;DHT22;2218;51.408;7.208;2023-05-07T01:43:03;21.30;47.30
4411;DHT22;2218;51.408;7.208;2023-05-07T01:45:31;21.30;47.30
4411;DHT22;2218;51.408;7.208;2023-05-07T01:48:02;21.30;47.30
4411;DHT22;2218;51.408;7.208;2023-05-07T01:50:30;21.30;47.30
4411;DHT22;2218;51.408;7.208;2023-05-07T01:52:59;21.20;47.30
4411;DHT22;2218;51.408;7.208;2023-05-07T01:55:27;21.30;47.40
4411;DHT22;2218;51.408;7.208;2023-05-07T01:57:54;21.30;47.40
4411;DHT22;2218;51.408;7.208;2023-05-07T02:00:22;21.30;47.40
4411;DHT22;2218;51.408;7.208;2023-05-07T02:02:49;21.30;47.40
4411;DHT22;2218;51.408;7.208;2023-05-07T02:05:27;21.20;47.30
4411;DHT22;2218;51.408;7.208;2023-05-07T02:07:59;21.20;47.30
4411;DHT22;2218;51.408;7.208;2023-05-07T02:10:29;21.30;47.50
4411;DHT22;2218;51.408;7.208;2023-05-07T02:12:56;21.30;47.40
4411;DHT22;2218;51.408;7.208;2023-05-07T02:15:23;21.30;47.40
4411;DHT22;2218;51.408;7.208;2023-05-07T02:18:02;21.30;47.40
4411;DHT22;2218;51.408;7.208;2023-05-07T02:20:30;21.20;47.40
4411;DHT22;2218;51.408;7.208;2023-05-07T02:22:57;21.20;47.40
4411;DHT22;2218;51.408;7.208;2023-05-07T02:25:26;21.30;47.50
4411;DHT22;2218;51.408;7.208;2023-05-07T02:27:54;21.20;47.40
4411;DHT22;2218;51.408;7.208;2023-05-07T02:30:28;21.20;47.40
4411;DHT22;2218;51.408;7.208;2023-05-07T02:32:57;21.20;47.40
4411;DHT22;2218;51.408;7.208;2023-05-07T02:35:24;21.20;47.40
4411;DHT22;2218;51.408;7.208;2023-05-07T02:37:52;21.20;47.40
4411;DHT22;2218;51.408;7.208;2023-05-07T02:40:19;21.20;47.50
4411;DHT22;2218;51.408;7.208;2023-05-07T02:42:46;21.20;47.40
4411;DHT22;2218;51.408;7.208;2023-05-07T02:45:15;21.20;47.40
4411;DHT22;2218;51.408;7.208;2023-05-07T02:47:42;21.20;47.50
4411;DHT22;2218;51.408;7.208;2023-05-07T02:50:11;21.20;47.40
4411;DHT22;2218;51.408;7.208;2023-05-07T02:52:38;21.20;47.40
4411;DHT22;2218;51.408;7.208;2023-05-07T02:55:06;21.20;47.50
4411;DHT22;2218;51.408;7.208;2023-05-07T02:57:34;21.20;47.40
4411;DHT22;2218;51.408;7.208;2023-05-07T03:00:10;21.20;47.40
4411;DHT22;2218;51.408;7.208;2023-05-07T03:02:42;21.20;47.40
4411;DHT22;2218;51.408;7.208;2023-05-07T03:05:09;21.20;47.50
4411;DHT22;2218;51.408;7.208;2023-05-07T03:07:37;21.20;47.40
4411;DHT22;2218;51.408;7.208;2023-05-07T03:10:05;21.20;47.40
4411;DHT22;2218;51.408;7.208;2023-05-07T03:12:33;21.20;47.40
4411;DHT22;2218;51.408;7.208;2023-05-07T03:15:00;21.20;47.50
4411;DHT22;2218;51.408;7.208;2023-05-07T03:17:27;21.20;47.50
4411;DHT22;2218;51.408;7.208;2023-05-07T03:19:55;21.20;47.40
4411;DHT22;2218;51.408;7.208;2023-05-07T03:22:22;21.20;47.50
4411;DHT22;2218;51.408;7.208;2023-05-07T03:24:49;21.20;47.50
4411;DHT22;2218;51.408;7.208;2023-05-07T03:27:16;21.20;47.50
4411;DHT22;2218;51.408;7.208;2023-05-07T03:29:43;21.20;47.50
4411;DHT22;2218;51.408;7.208;2023-05-07T03:32:10;21.10;47.40
4411;DHT22;2218;51.408;7.208;2023-05-07T03:34:37;21.20;47.50
4411;DHT22;2218;51.408;7.208;2023-05-07T03:37:06;21.20;47.50
4411;DHT22;2218;51.408;7.208;2023-05-07T03:39:33;21.20;47.50
4411;DHT22;2218;51.408;7.208;2023-05-07T03:42:00;21.10;47.50
4411;DHT22;2218;51.408;7.208;2023-05-07T03:44:28;21.20;47.60
4411;DHT22;2218;51.408;7.208;2023-05-07T03:46:56;21.10;47.50
4411;DHT22;2218;51.408;7.208;2023-05-07T03:49:23;21.20;47.60
4411;DHT22;2218;51.408;7.208;2023-05-07T03:51:50;21.10;47.50
4411;DHT22;2218;51.408;7.208;2023-05-07T03:54:18;21.20;47.60
4411;DHT22;2218;51.408;7.208;2023-05-07T03:56:46;21.20;47.60
4411;DHT22;2218;51.408;7.208;2023-05-07T03:59:14;21.10;47.50
4411;DHT22;2218;51.408;7.208;2023-05-07T04:01:42;21.10;47.50
4411;DHT22;2218;51.408;7.208;2023-05-07T04:04:14;21.10;47.50
4411;DHT22;2218;51.408;7.208;2023-05-07T04:06:41;21.20;47.60
4411;DHT22;2218;51.408;7.208;2023-05-07T04:09:09;21.10;47.50
4411;DHT22;2218;51.408;7.208;2023-05-07T04:11:39;21.10;47.50
4411;DHT22;2218;51.408;7.208;2023-05-07T04:14:08;21.20;47.60
4411;DHT22;2218;51.408;7.208;2023-05-07T04:16:35;21.10;47.50
4411;DHT22;2218;51.408;7.208;2023-05-07T04:19:03;21.20;47.60
4411;DHT22;2218;51.408;7.208;2023-05-07T04:21:30;21.20;47.60
4411;DHT22;2218;51.408;7.208;2023-05-07T04:23:58;21.20;47.60
4411;DHT22;2218;51.408;7.208;2023-05-07T04:26:25;21.10;47.60
4411;DHT22;2218;51.408;7.208;2023-05-07T04:28:53;21.20;47.60
4411;DHT22;2218;51.408;7.208;2023-05-07T04:31:20;21.20;47.70
4411;DHT22;2218;51.408;7.208;2023-05-07T04:33:51;21.10;47.60
4411;DHT22;2218;51.408;7.208;2023-05-07T04:36:18;21.20;47.70
4411;DHT22;2218;51.408;7.208;2023-05-07T04:38:50;21.20;47.70
4411;DHT22;2218;51.408;7.208;2023-05-07T04:41:18;21.10;47.60
4411;DHT22;2218;51.408;7.208;2023-05-07T04:43:46;21.10;47.70
4411;DHT22;2218;51.408;7.208;2023-05-07T04:46:16;21.20;48.30
4411;DHT22;2218;51.408;7.208;2023-05-07T04:48:43;21.20;47.70
4411;DHT22;2218;51.408;7.208;2023-05-07T04:51:10;21.20;47.70
4411;DHT22;2218;51.408;7.208;2023-05-07T04:53:37;21.10;47.60
4411;DHT22;2218;51.408;7.208;2023-05-07T04:56:05;21.10;47.60
4411;DHT22;2218;51.408;7.208;2023-05-07T04:58:39;21.10;47.70
4411;DHT22;2218;51.408;7.208;2023-05-07T05:01:06;21.20;47.80
4411;DHT22;2218;51.408;7.208;2023-05-07T05:03:35;21.20;48.30
4411;DHT22;2218;51.408;7.208;2023-05-07T05:06:02;21.20;47.80
4411;DHT22;2218;51.408;7.208;2023-05-07T05:08:32;21.20;47.80
4411;DHT22;2218;51.408;7.208;2023-05-07T05:11:01;21.20;47.70
4411;DHT22;2218;51.408;7.208;2023-05-07T05:13:29;21.10;47.60
4411;DHT22;2218;51.408;7.208;2023-05-07T05:15:57;21.10;47.60
4411;DHT22;2218;51.408;7.208;2023-05-07T05:18:26;21.20;47.70
4411;DHT22;2218;51.408;7.208;2023-05-07T05:20:54;21.20;47.70
4411;DHT22;2218;51.408;7.208;2023-05-07T05:23:21;21.20;47.70
4411;DHT22;2218;51.408;7.208;2023-05-07T05:25:48;21.10;47.60
4411;DHT22;2218;51.408;7.208;2023-05-07T05:28:15;21.10;47.60
4411;DHT22;2218;51.408;7.208;2023-05-07T05:30:42;21.10;47.60
4411;DHT22;2218;51.408;7.208;2023-05-07T05:33:09;21.20;47.70
4411;DHT22;2218;51.408;7.208;2023-05-07T05:35:36;21.20;47.70
4411;DHT22;2218;51.408;7.208;2023-05-07T05:38:07;21.20;47.70
4411;DHT22;2218;51.408;7.208;2023-05-07T05:40:34;21.20;47.70
4411;DHT22;2218;51.408;7.208;2023-05-07T05:43:02;21.20;47.70
4411;DHT22;2218;51.408;7.208;2023-05-07T05:45:29;21.20;47.70
4411;DHT22;2218;51.408;7.208;2023-05-07T05:47:56;21.30;47.70
4411;DHT22;2218;51.408;7.208;2023-05-07T05:50:23;21.20;47.60
4411;DHT22;2218;51.408;7.208;2023-05-07T05:52:52;21.30;47.60
4411;DHT22;2218;51.408;7.208;2023-05-07T05:55:21;21.30;47.60
4411;DHT22;2218;51.408;7.208;2023-05-07T05:57:48;21.30;47.60
4411;DHT22;2218;51.408;7.208;2023-05-07T06:00:16;21.30;47.60
4411;DHT22;2218;51.408;7.208;2023-05-07T06:02:46;21.30;47.60
4411;DHT22;2218;51.408;7.208;2023-05-07T06:05:19;21.30;47.70
4411;DHT22;2218;51.408;7.208;2023-05-07T06:07:47;21.30;47.70
4411;DHT22;2218;51.408;7.208;2023-05-07T06:10:14;21.30;47.60
4411;DHT22;2218;51.408;7.208;2023-05-07T06:12:43;21.40;47.80
4411;DHT22;2218;51.408;7.208;2023-05-07T06:15:11;21.40;47.60
4411;DHT22;2218;51.408;7.208;2023-05-07T06:17:38;21.40;47.60
4411;DHT22;2218;51.408;7.208;2023-05-07T06:20:07;21.40;47.70
4411;DHT22;2218;51.408;7.208;2023-05-07T06:22:35;21.40;47.70
4411;DHT22;2218;51.408;7.208;2023-05-07T06:25:03;21.40;47.60
4411;DHT22;2218;51.408;7.208;2023-05-07T06:27:30;21.40;47.70
4411;DHT22;2218;51.408;7.208;2023-05-07T06:29:59;21.40;47.70
4411;DHT22;2218;51.408;7.208;2023-05-07T06:32:26;21.40;47.70
4411;DHT22;2218;51.408;7.208;2023-05-07T06:34:53;21.40;47.70
4411;DHT22;2218;51.408;7.208;2023-05-07T06:37:21;21.40;47.80
4411;DHT22;2218;51.408;7.208;2023-05-07T06:39:54;21.40;47.70
4411;DHT22;2218;51.408;7.208;2023-05-07T06:42:22;21.40;47.70
4411;DHT22;2218;51.408;7.208;2023-05-07T06:44:49;21.40;47.70
4411;DHT22;2218;51.408;7.208;2023-05-07T06:47:19;21.40;47.70
4411;DHT22;2218;51.408;7.208;2023-05-07T06:49:50;21.40;47.80
4411;DHT22;2218;51.408;7.208;2023-05-07T06:52:19;21.40;47.70
4411;DHT22;2218;51.408;7.208;2023-05-07T06:54:48;21.40;47.80
4411;DHT22;2218;51.408;7.208;2023-05-07T06:57:17;21.40;47.70
4411;DHT22;2218;51.408;7.208;2023-05-07T06:59:44;21.40;47.70
4411;DHT22;2218;51.408;7.208;2023-05-07T07:02:11;21.40;47.70
4411;DHT22;2218;51.408;7.208;2023-05-07T07:04:39;21.40;47.70
4411;DHT22;2218;51.408;7.208;2023-05-07T07:07:09;21.40;47.70
4411;DHT22;2218;51.408;7.208;2023-05-07T07:09:38;21.40;47.60
4411;DHT22;2218;51.408;7.208;2023-05-07T07:12:06;21.40;47.60
4411;DHT22;2218;51.408;7.208;2023-05-07T07:14:35;21.40;47.70
4411;DHT22;2218;51.408;7.208;2023-05-07T07:17:03;21.40;47.70
4411;DHT22;2218;51.408;7.208;2023-05-07T07:19:30;21.40;47.70
4411;DHT22;2218;51.408;7.208;2023-05-07T07:21:59;21.40;47.60
4411;DHT22;2218;51.408;7.208;2023-05-07T07:24:27;21.40;47.70
4411;DHT22;2218;51.408;7.208;2023-05-07T07:26:58;21.40;47.70
4411;DHT22;2218;51.408;7.208;2023-05-07T07:29:26;21.40;47.70
4411;DHT22;2218;51.408;7.208;2023-05-07T07:31:53;21.40;47.70
4411;DHT22;2218;51.408;7.208;2023-05-07T07:34:20;21.40;47.70
4411;DHT22;2218;51.408;7.208;2023-05-07T07:36:48;21.40;47.70
4411;DHT22;2218;51.408;7.208;2023-05-07T07:39:19;21.40;47.70
4411;DHT22;2218;51.408;7.208;2023-05-07T07:41:49;21.40;47.60
4411;DHT22;2218;51.408;7.208;2023-05-07T07:44:17;21.40;47.70
4411;DHT22;2218;51.408;7.208;2023-05-07T07:46:49;21.40;47.60
4411;DHT22;2218;51.408;7.208;2023-05-07T07:49:16;21.40;47.70
4411;DHT22;2218;51.408;7.208;2023-05-07T07:51:44;21.40;47.60
4411;DHT22;2218;51.408;7.208;2023-05-07T07:54:12;21.40;47.60
4411;DHT22;2218;51.408;7.208;2023-05-07T07:56:41;21.40;47.60
4411;DHT22;2218;51.408;7.208;2023-05-07T07:59:09;21.40;47.60
4411;DHT22;2218;51.408;7.208;2023-05-07T08:01:39;21.40;47.70
4411;DHT22;2218;51.408;7.208;2023-05-07T08:04:07;21.50;47.70
4411;DHT22;2218;51.408;7.208;2023-05-07T08:06:37;21.40;47.70
4411;DHT22;2218;51.408;7.208;2023-05-07T08:09:05;21.40;47.70
4411;DHT22;2218;51.408;7.208;2023-05-07T08:11:32;21.50;47.80
4411;DHT22;2218;51.408;7.208;2023-05-07T08:14:01;21.40;47.70
4411;DHT22;2218;51.408;7.208;2023-05-07T08:16:29;21.40;47.70
4411;DHT22;2218;51.408;7.208;2023-05-07T08:18:56;21.40;47.70
4411;DHT22;2218;51.408;7.208;2023-05-07T08:21:23;21.40;48.20
4411;DHT22;2218;51.408;7.208;2023-05-07T08:23:50;21.50;47.70
4411;DHT22;2218;51.408;7.208;2023-05-07T08:26:17;21.40;47.70
4411;DHT22;2218;51.408;7.208;2023-05-07T08:28:44;21.40;47.70
4411;DHT22;2218;51.408;7.208;2023-05-07T08:31:12;21.50;47.70
4411;DHT22;2218;51.408;7.208;2023-05-07T08:33:43;21.50;47.70
4411;DHT22;2218;51.408;7.208;2023-05-07T08:36:10;21.40;47.70
4411;DHT22;2218;51.408;7.208;2023-05-07T08:38:37;21.40;47.70
4411;DHT22;2218;51.408;7.208;2023-05-07T08:41:08;21.50;47.80
4411;DHT22;2218;51.408;7.208;2023-05-07T08:43:38;21.50;47.80
4411;DHT22;2218;51.408;7.208;2023-05-07T08:46:09;21.50;47.70
4411;DHT22;2218;51.408;7.208;2023-05-07T08:48:42;21.50;47.70
4411;DHT22;2218;51.408;7.208;2023-05-07T08:51:13;21.50;47.70
4411;DHT22;2218;51.408;7.208;2023-05-07T08:53:43;21.50;47.70
4411;DHT22;2218;51.408;7.208;2023-05-07T08:56:15;21.50;47.70
4411;DHT22;2218;51.408;7.208;2023-05-07T08:58:43;21.50;47.70
4411;DHT22;2218;51.408;7.208;2023-05-07T09:01:13;21.50;47.60
4411;DHT22;2218;51.408;7.208;2023-05-07T09:03:46;21.60;47.70
4411;DHT22;2218;51.408;7.208;2023-05-07T09:06:15;21.50;47.70
4411;DHT22;2218;51.408;7.208;2023-05-07T09:08:49;21.50;47.60
4411;DHT22;2218;51.408;7.208;2023-05-07T09:11:20;21.60;47.70
4411;DHT22;2218;51.408;7.208;2023-05-07T09:13:48;21.50;47.60
4411;DHT22;2218;51.408;7.208;2023-05-07T09:16:16;21.50;47.60
4411;DHT22;2218;51.408;7.208;2023-05-07T09:18:46;21.50;47.60
4411;DHT22;2218;51.408;7.208;2023-05-07T09:21:15;21.60;47.60
4411;DHT22;2218;51.408;7.208;2023-05-07T09:23:44;21.60;47.60
4411;DHT22;2218;51.408;7.208;2023-05-07T09:26:12;21.60;47.60
4411;DHT22;2218;51.408;7.208;2023-05-07T09:28:42;21.60;47.60
4411;DHT22;2218;51.408;7.208;2023-05-07T09:31:11;21.60;47.60
4411;DHT22;2218;51.408;7.208;2023-05-07T09:33:39;21.60;47.60
4411;DHT22;2218;51.408;7.208;2023-05-07T09:36:10;21.60;47.50
4411;DHT22;2218;51.408;7.208;2023-05-07T09:38:40;21.60;47.50
4411;DHT22;2218;51.408;7.208;2023-05-07T09:41:10;21.60;47.50
4411;DHT22;2218;51.408;7.208;2023-05-07T09:43:56;21.60;47.50
4411;DHT22;2218;51.408;7.208;2023-05-07T09:46:30;21.60;47.50
4411;DHT22;2218;51.408;7.208;2023-05-07T09:49:07;21.60;47.60
4411;DHT22;2218;51.408;7.208;2023-05-07T09:51:47;21.70;47.60
4411;DHT22;2218;51.408;7.208;2023-05-07T09:54:16;21.70;47.60
4411;DHT22;2218;51.408;7.208;2023-05-07T09:56:48;21.60;47.50
4411;DHT22;2218;51.408;7.208;2023-05-07T09:59:17;21.60;47.50
4411;DHT22;2218;51.408;7.208;2023-05-07T10:01:46;21.70;47.60
4411;DHT22;2218;51.408;7.208;2023-05-07T10:04:14;21.70;47.60
4411;DHT22;2218;51.408;7.208;2023-05-07T10:06:44;21.70;47.60
4411;DHT22;2218;51.408;7.208;2023-05-07T10:09:14;21.70;47.60
4411;DHT22;2218;51.408;7.208;2023-05-07T10:11:42;21.70;47.60
4411;DHT22;2218;51.408;7.208;2023-05-07T10:14:10;21.70;47.60
4411;DHT22;2218;51.408;7.208;2023-05-07T10:16:41;21.70;47.60
4411;DHT22;2218;51.408;7.208;2023-05-07T10:19:12;21.70;47.60
4411;DHT22;2218;51.408;7.208;2023-05-07T10:21:51;21.70;47.60
4411;DHT22;2218;51.408;7.208;2023-05-07T10:24:26;21.70;47.60
4411;DHT22;2218;51.408;7.208;2023-05-07T10:27:01;21.70;47.60
4411;DHT22;2218;51.408;7.208;2023-05-07T10:29:36;21.70;47.60
4411;DHT22;2218;51.408;7.208;2023-05-07T10:32:31;21.70;47.60
4411;DHT22;2218;51.408;7.208;2023-05-07T10:35:09;21.70;47.60
4411;DHT22;2218;51.408;7.208;2023-05-07T10:37:42;21.70;47.60
4411;DHT22;2218;51.408;7.208;2023-05-07T10:40:12;21.70;47.50
4411;DHT22;2218;51.408;7.208;2023-05-07T10:42:53;21.70;47.60
4411;DHT22;2218;51.408;7.208;2023-05-07T10:45:23;21.70;47.50
4411;DHT22;2218;51.408;7.208;2023-05-07T10:48:08;21.70;47.50
4411;DHT22;2218;51.408;7.208;2023-05-07T10:50:37;21.80;47.60
4411;DHT22;2218;51.408;7.208;2023-05-07T10:53:23;21.70;47.50
4411;DHT22;2218;51.408;7.208;2023-05-07T10:56:26;21.70;47.50
4411;DHT22;2218;51.408;7.208;2023-05-07T11:02:18;21.70;47.50
4411;DHT22;2218;51.408;7.208;2023-05-07T11:05:20;21.80;47.50
4411;DHT22;2218;51.408;7.208;2023-05-07T11:07:54;21.70;47.50
4411;DHT22;2218;51.408;7.208;2023-05-07T11:10:47;21.80;47.50
4411;DHT22;2218;51.408;7.208;2023-05-07T11:13:43;21.80;47.50
4411;DHT22;2218;51.408;7.208;2023-05-07T11:16:20;21.70;47.40
4411;DHT22;2218;51.408;7.208;2023-05-07T11:18:55;21.80;47.50
4411;DHT22;2218;51.408;7.208;2023-05-07T11:21:34;21.70;47.40
4411;DHT22;2218;51.408;7.208;2023-05-07T11:24:10;21.70;47.40
4411;DHT22;2218;51.408;7.208;2023-05-07T11:26:49;21.80;47.50
4411;DHT22;2218;51.408;7.208;2023-05-07T11:29:20;21.80;47.50
4411;DHT22;2218;51.408;7.208;2023-05-07T11:31:50;21.80;47.50
4411;DHT22;2218;51.408;7.208;2023-05-07T11:34:23;21.80;47.50
4411;DHT22;2218;51.408;7.208;2023-05-07T11:36:53;21.80;47.50
4411;DHT22;2218;51.408;7.208;2023-05-07T11:39:27;21.70;47.40
4411;DHT22;2218;51.408;7.208;2023-05-07T11:41:57;21.80;47.50
4411;DHT22;2218;51.408;7.208;2023-05-07T11:44:24;21.80;47.50
4411;DHT22;2218;51.408;7.208;2023-05-07T11:46:51;21.80;47.50
4411;DHT22;2218;51.408;7.208;2023-05-07T11:49:18;21.80;47.60
4411;DHT22;2218;51.408;7.208;2023-05-07T11:51:45;21.70;47.50
4411;DHT22;2218;51.408;7.208;2023-05-07T11:54:16;21.70;47.40
4411;DHT22;2218;51.408;7.208;2023-05-07T11:56:44;21.70;47.40
4411;DHT22;2218;51.408;7.208;2023-05-07T11:59:17;21.70;47.40
4411;DHT22;2218;51.408;7.208;2023-05-07T12:01:46;21.80;47.50
4411;DHT22;2218;51.408;7.208;2023-05-07T12:04:14;21.80;47.40
4411;DHT22;2218;51.408;7.208;2023-05-07T12:06:46;21.80;47.50
4411;DHT22;2218;51.408;7.208;2023-05-07T12:09:13;21.80;47.50
4411;DHT22;2218;51.408;7.208;2023-05-07T12:11:40;21.80;47.50
4411;DHT22;2218;51.408;7.208;2023-05-07T12:14:13;21.80;47.40
4411;DHT22;2218;51.408;7.208;2023-05-07T12:16:42;21.80;47.40
4411;DHT22;2218;51.408;7.208;2023-05-07T12:19:10;21.80;47.40
4411;DHT22;2218;51.408;7.208;2023-05-07T12:21:39;21.80;47.40
4411;DHT22;2218;51.408;7.208;2023-05-07T12:24:06;21.80;47.40
4411;DHT22;2218;51.408;7.208;2023-05-07T12:26:37;21.80;47.40
4411;DHT22;2218;51.408;7.208;2023-05-07T12:29:06;21.80;47.40
4411;DHT22;2218;51.408;7.208;2023-05-07T12:31:34;21.80;47.40
4411;DHT22;2218;51.408;7.208;2023-05-07T12:34:02;21.80;47.40
4411;DHT22;2218;51.408;7.208;2023-05-07T12:36:36;21.80;47.40
4411;DHT22;2218;51.408;7.208;2023-05-07T12:39:04;21.80;47.40
4411;DHT22;2218;51.408;7.208;2023-05-07T12:41:36;21.80;47.40
4411;DHT22;2218;51.408;7.208;2023-05-07T12:44:18;21.80;47.90
4411;DHT22;2218;51.408;7.208;2023-05-07T12:46:48;21.80;47.40
4411;DHT22;2218;51.408;7.208;2023-05-07T12:49:15;21.80;47.40
4411;DHT22;2218;51.408;7.208;2023-05-07T12:51:43;21.80;47.40
4411;DHT22;2218;51.408;7.208;2023-05-07T12:54:10;21.80;47.40
4411;DHT22;2218;51.408;7.208;2023-05-07T12:56:37;21.80;47.40
4411;DHT22;2218;51.408;7.208;2023-05-07T12:59:04;21.80;47.40
4411;DHT22;2218;51.408;7.208;2023-05-07T13:01:31;21.80;47.40
4411;DHT22;2218;51.408;7.208;2023-05-07T13:04:03;21.80;47.40
4411;DHT22;2218;51.408;7.208;2023-05-07T13:06:31;21.80;47.50
4411;DHT22;2218;51.408;7.208;2023-05-07T13:08:58;21.80;47.50
4411;DHT22;2218;51.408;7.208;2023-05-07T13:11:24;21.70;47.40
4411;DHT22;2218;51.408;7.208;2023-05-07T13:13:51;21.70;47.50
4411;DHT22;2218;51.408;7.208;2023-05-07T13:16:18;21.70;47.50
4411;DHT22;2218;51.408;7.208;2023-05-07T13:18:45;21.80;47.50
4411;DHT22;2218;51.408;7.208;2023-05-07T13:21:13;21.70;47.50
4411;DHT22;2218;51.408;7.208;2023-05-07T13:23:40;21.70;47.50
4411;DHT22;2218;51.408;7.208;2023-05-07T13:26:07;21.70;47.50
4411;DHT22;2218;51.408;7.208;2023-05-07T13:28:34;21.70;47.50
4411;DHT22;2218;51.408;7.208;2023-05-07T13:31:02;21.70;47.50
4411;DHT22;2218;51.408;7.208;2023-05-07T13:33:29;21.80;47.60
4411;DHT22;2218;51.408;7.208;2023-05-07T13:35:56;21.70;47.50
4411;DHT22;2218;51.408;7.208;2023-05-07T13:38:24;21.70;47.50
4411;DHT22;2218;51.408;7.208;2023-05-07T13:40:52;21.70;47.60
4411;DHT22;2218;51.408;7.208;2023-05-07T13:43:19;21.70;47.50
4411;DHT22;2218;51.408;7.208;2023-05-07T13:45:46;21.70;47.50
4411;DHT22;2218;51.408;7.208;2023-05-07T13:48:13;21.70;47.50
4411;DHT22;2218;51.408;7.208;2023-05-07T13:50:39;21.70;47.50
4411;DHT22;2218;51.408;7.208;2023-05-07T13:53:07;21.70;47.50
4411;DHT22;2218;51.408;7.208;2023-05-07T13:55:36;21.70;47.50
4411;DHT22;2218;51.408;7.208;2023-05-07T13:58:03;21.70;47.50
4411;DHT22;2218;51.408;7.208;2023-05-07T14:00:30;21.70;47.50
4411;DHT22;2218;51.408;7.208;2023-05-07T14:02:56;21.70;47.50
4411;DHT22;2218;51.408;7.208;2023-05-07T14:05:24;21.70;47.50
4411;DHT22;2218;51.408;7.208;2023-05-07T14:07:53;21.70;47.50
4411;DHT22;2218;51.408;7.208;2023-05-07T14:10:20;21.70;47.40
4411;DHT22;2218;51.408;7.208;2023-05-07T14:12:49;21.70;47.50
4411;DHT22;2218;51.408;7.208;2023-05-07T14:15:16;21.70;47.50
4411;DHT22;2218;51.408;7.208;2023-05-07T14:17:43;21.70;47.50
4411;DHT22;2218;51.408;7.208;2023-05-07T14:20:11;21.70;47.50
4411;DHT22;2218;51.408;7.208;2023-05-07T14:22:39;21.70;47.50
4411;DHT22;2218;51.408;7.208;2023-05-07T14:25:07;21.70;47.50
4411;DHT22;2218;51.408;7.208;2023-05-07T14:27:34;21.70;47.50
4411;DHT22;2218;51.408;7.208;2023-05-07T14:30:03;21.70;47.50
4411;DHT22;2218;51.408;7.208;2023-05-07T14:32:31;21.70;47.50
4411;DHT22;2218;51.408;7.208;2023-05-07T14:34:58;21.70;47.50
4411;DHT22;2218;51.408;7.208;2023-05-07T14:37:25;21.70;47.50
4411;DHT22;2218;51.408;7.208;2023-05-07T14:39:52;21.70;47.50
4411;DHT22;2218;51.408;7.208;2023-05-07T14:42:19;21.70;47.60
4411;DHT22;2218;51.408;7.208;2023-05-07T14:44:46;21.70;47.50
4411;DHT22;2218;51.408;7.208;2023-05-07T14:47:15;21.70;47.50
4411;DHT22;2218;51.408;7.208;2023-05-07T14:49:42;21.70;47.50
4411;DHT22;2218;51.408;7.208;2023-05-07T14:52:09;21.70;47.60
4411;DHT22;2218;51.408;7.208;2023-05-07T14:54:37;21.70;47.60
4411;DHT22;2218;51.408;7.208;2023-05-07T14:57:05;21.70;47.50
4411;DHT22;2218;51.408;7.208;2023-05-07T14:59:33;21.70;47.50
4411;DHT22;2218;51.408;7.208;2023-05-07T15:02:00;21.70;47.50
4411;DHT22;2218;51.408;7.208;2023-05-07T15:04:28;21.70;47.50
4411;DHT22;2218;51.408;7.208;2023-05-07T15:06:55;21.70;47.60
4411;DHT22;2218;51.408;7.208;2023-05-07T15:09:22;21.70;47.60
4411;DHT22;2218;51.408;7.208;2023-05-07T15:11:49;21.70;47.60
4411;DHT22;2218;51.408;7.208;2023-05-07T15:14:16;21.70;47.60
4411;DHT22;2218;51.408;7.208;2023-05-07T15:16:43;21.70;47.60
4411;DHT22;2218;51.408;7.208;2023-05-07T15:19:11;21.70;47.60
4411;DHT22;2218;51.408;7.208;2023-05-07T15:21:41;21.70;47.60
4411;DHT22;2218;51.408;7.208;2023-05-07T15:24:08;21.70;47.70
4411;DHT22;2218;51.408;7.208;2023-05-07T15:26:35;21.70;47.70
4411;DHT22;2218;51.408;7.208;2023-05-07T15:29:02;21.70;47.70
4411;DHT22;2218;51.408;7.208;2023-05-07T15:31:33;21.70;47.70
4411;DHT22;2218;51.408;7.208;2023-05-07T15:34:00;21.70;47.80
4411;DHT22;2218;51.408;7.208;2023-05-07T15:36:27;21.70;47.70
4411;DHT22;2218;51.408;7.208;2023-05-07T15:38:55;21.70;47.70
4411;DHT22;2218;51.408;7.208;2023-05-07T15:41:22;21.70;47.80
4411;DHT22;2218;51.408;7.208;2023-05-07T15:43:51;21.70;47.70
4411;DHT22;2218;51.408;7.208;2023-05-07T15:46:20;21.70;47.80
4411;DHT22;2218;51.408;7.208;2023-05-07T15:48:49;21.70;47.80
4411;DHT22;2218;51.408;7.208;2023-05-07T15:51:16;21.70;47.80
4411;DHT22;2218;51.408;7.208;2023-05-07T15:53:43;21.70;47.80
4411;DHT22;2218;51.408;7.208;2023-05-07T15:56:12;21.70;48.30
4411;DHT22;2218;51.408;7.208;2023-05-07T15:58:39;21.70;47.70
4411;DHT22;2218;51.408;7.208;2023-05-07T16:01:06;21.60;47.70
4411;DHT22;2218;51.408;7.208;2023-05-07T16:03:33;21.60;47.70
4411;DHT22;2218;51.408;7.208;2023-05-07T16:06:00;21.60;47.70
4411;DHT22;2218;51.408;7.208;2023-05-07T16:08:27;21.60;47.70
4411;DHT22;2218;51.408;7.208;2023-05-07T16:10:54;21.60;47.70
4411;DHT22;2218;51.408;7.208;2023-05-07T16:13:22;21.60;47.70
4411;DHT22;2218;51.408;7.208;2023-05-07T16:15:54;21.60;47.80
4411;DHT22;2218;51.408;7.208;2023-05-07T16:18:22;21.60;47.70